createdAt,value
2023-01-23T00:01:56.767Z,95022.75
2023-01-23T00:03:58.883Z,95013.69
2023-01-23T00:06:02.482Z,95024.69
2023-01-23T00:08:04.290Z,95028.94
2023-01-23T00:10:06.636Z,95039.81
2023-01-23T00:12:08.280Z,95035.94
2023-01-23T00:14:10.790Z,95033.84
2023-01-23T00:16:15.446Z,95041.56
2023-01-23T00:18:17.662Z,95031.09
2023-01-23T00:20:19.578Z,95041.84
2023-01-23T00:22:21.601Z,95037.13
2023-01-23T00:24:23.162Z,95030.66
2023-01-23T00:26:28.161Z,95035.44
2023-01-23T00:28:29.681Z,95044.78
2023-01-23T00:30:31.558Z,95035.88
2023-01-23T00:32:33.252Z,95035.88
2023-01-23T00:34:34.896Z,95043.34
2023-01-23T00:36:39.476Z,95047.47
2023-01-23T00:38:41.702Z,95050.47
2023-01-23T00:40:43.380Z,95055.84
2023-01-23T00:42:44.932Z,95046.78
2023-01-23T00:44:46.551Z,95047.47
2023-01-23T00:46:48.850Z,95061.78
2023-01-23T00:48:51.123Z,95062.47
2023-01-23T00:50:52.902Z,95064.78
2023-01-23T00:52:54.563Z,95055.41
2023-01-23T00:54:56.171Z,95050.56
2023-01-23T00:56:57.964Z,95056.66
2023-01-23T00:58:59.620Z,95048.81
2023-01-23T01:01:01.288Z,95048.16
2023-01-23T01:03:03.107Z,95051.31
2023-01-23T01:05:05.128Z,95058.16
2023-01-23T01:07:06.771Z,95044.97
2023-01-23T01:09:08.402Z,95043.06
2023-01-23T01:11:10.082Z,95051.72
2023-01-23T01:13:12.185Z,95055.16
2023-01-23T01:15:14.217Z,95053.50
2023-01-23T01:17:15.822Z,95053.25
2023-01-23T01:19:19.050Z,95063.16
2023-01-23T01:21:20.872Z,95057.66
2023-01-23T01:23:22.702Z,95054.94
2023-01-23T01:25:24.815Z,95056.72
2023-01-23T01:27:26.441Z,95064.56
2023-01-23T01:29:28.034Z,95070.38
2023-01-23T01:31:29.807Z,95070.63
2023-01-23T01:33:31.568Z,95081.63
2023-01-23T01:35:33.535Z,95080.25
2023-01-23T01:37:36.318Z,95086.69
2023-01-23T01:39:37.911Z,95087.66
2023-01-23T01:41:39.581Z,95079.16
2023-01-23T01:43:41.924Z,95086.84
2023-01-23T01:46:05.856Z,95080.00
2023-01-23T01:48:07.471Z,95077.53
2023-01-23T01:50:12.413Z,95077.22
2023-01-23T01:52:15.168Z,95070.91
2023-01-23T01:54:33.307Z,95073.09
2023-01-23T01:56:44.702Z,95074.88
2023-01-23T01:58:47.897Z,95073.34
2023-01-23T02:00:49.598Z,95072.09
2023-01-23T02:02:54.168Z,95078.69
2023-01-23T02:05:02.194Z,95087.22
2023-01-23T02:07:09.210Z,95085.56
2023-01-23T02:09:26.743Z,95088.75
2023-01-23T02:11:28.560Z,95088.47
2023-01-23T02:13:36.161Z,95086.94
2023-01-23T02:15:38.280Z,95086.00
2023-01-23T02:17:40.199Z,95088.19
2023-01-23T02:19:59.393Z,95091.53
2023-01-23T02:22:13.763Z,95083.81
2023-01-23T02:24:37.209Z,95087.66
2023-01-23T02:26:41.189Z,95084.38
2023-01-23T02:28:45.514Z,95088.53
2023-01-23T02:30:47.367Z,95085.34
2023-01-23T02:32:49.092Z,95085.63
2023-01-23T02:34:52.622Z,95085.09
2023-01-23T02:36:54.572Z,95084.41
2023-01-23T02:39:09.554Z,95094.84
2023-01-23T02:41:12.613Z,95085.38
2023-01-23T02:43:16.641Z,95099.28
2023-01-23T02:45:18.300Z,95094.75
2023-01-23T02:47:19.912Z,95089.66
2023-01-23T02:49:22.400Z,95089.09
2023-01-23T02:51:24.350Z,95096.53
2023-01-23T02:53:26.915Z,95091.31
2023-01-23T02:55:33.222Z,95088.81
2023-01-23T02:57:35.063Z,95081.97
2023-01-23T02:59:55.047Z,95081.78
2023-01-23T03:01:57.693Z,95081.09
2023-01-23T03:04:04.046Z,95089.75
2023-01-23T03:06:06.069Z,95093.06
2023-01-23T03:08:07.680Z,95091.00
2023-01-23T03:10:10.704Z,95090.31
2023-01-23T03:12:12.394Z,95091.72
2023-01-23T03:14:16.914Z,95092.13
2023-01-23T03:16:18.590Z,95094.75
2023-01-23T03:18:20.567Z,95102.16
2023-01-23T03:20:24.717Z,95096.53
2023-01-23T03:22:26.649Z,95098.72
2023-01-23T03:24:28.332Z,95093.50
2023-01-23T03:26:29.958Z,95093.78
2023-01-23T03:29:03.741Z,95089.13
2023-01-23T03:31:05.976Z,95093.50
2023-01-23T03:33:07.674Z,95093.25
2023-01-23T03:35:10.323Z,95087.03
2023-01-23T03:37:13.305Z,95084.00
2023-01-23T03:39:33.405Z,95089.38
2023-01-23T03:41:35.083Z,95095.56
2023-01-23T03:43:36.634Z,95090.09
2023-01-23T03:45:38.309Z,95090.47
2023-01-23T03:47:39.960Z,95091.84
2023-01-23T03:49:41.678Z,95094.84
2023-01-23T03:51:43.609Z,95094.03
2023-01-23T03:53:45.402Z,95101.06
2023-01-23T03:55:47.535Z,95099.00
2023-01-23T03:57:49.219Z,95099.41
2023-01-23T03:59:50.803Z,95100.34
2023-01-23T04:01:52.465Z,95094.03
2023-01-23T04:03:54.079Z,95099.53
2023-01-23T04:05:57.679Z,95100.66
2023-01-23T04:07:59.362Z,95102.28
2023-01-23T04:10:00.980Z,95110.81
2023-01-23T04:12:02.601Z,95103.28
2023-01-23T04:14:04.186Z,95098.59
2023-01-23T04:16:06.669Z,95103.13
2023-01-23T04:18:08.454Z,95104.09
2023-01-23T04:20:11.648Z,95108.38
2023-01-23T04:22:13.257Z,95102.72
2023-01-23T04:24:16.023Z,95110.03
2023-01-23T04:26:17.714Z,95107.78
2023-01-23T04:28:19.527Z,95109.44
2023-01-23T04:30:21.374Z,95112.75
2023-01-23T04:32:23.133Z,95114.09
2023-01-23T04:34:24.758Z,95105.16
2023-01-23T04:36:26.383Z,95105.31
2023-01-23T04:38:29.283Z,95105.72
2023-01-23T04:40:30.866Z,95106.44
2023-01-23T04:42:32.456Z,95107.06
2023-01-23T04:44:34.081Z,95106.97
2023-01-23T04:46:35.678Z,95106.97
2023-01-23T04:48:37.238Z,95112.59
2023-01-23T04:50:39.527Z,95112.22
2023-01-23T04:52:41.164Z,95112.69
2023-01-23T04:54:43.130Z,95113.41
2023-01-23T04:57:03.700Z,95111.38
2023-01-23T04:59:05.409Z,95112.56
2023-01-23T05:01:08.130Z,95113.00
2023-01-23T05:03:09.897Z,95113.84
2023-01-23T05:05:12.524Z,95116.88
2023-01-23T05:07:14.326Z,95107.06
2023-01-23T05:09:15.907Z,95127.09
2023-01-23T05:11:17.676Z,95125.88
2023-01-23T05:13:19.277Z,95121.06
2023-01-23T05:15:21.385Z,95127.91
2023-01-23T05:17:23.105Z,95127.38
2023-01-23T05:19:24.806Z,95130.00
2023-01-23T05:21:26.535Z,95136.72
2023-01-23T05:23:28.080Z,95139.06
2023-01-23T05:25:29.841Z,95143.19
2023-01-23T05:27:31.529Z,95149.84
2023-01-23T05:29:33.147Z,95149.44
2023-01-23T05:31:34.843Z,95159.31
2023-01-23T05:33:36.586Z,95159.69
2023-01-23T05:35:40.949Z,95167.78
2023-01-23T05:37:42.942Z,95175.34
2023-01-23T05:39:44.686Z,95167.66
2023-01-23T05:41:46.294Z,95181.66
2023-01-23T05:43:50.032Z,95175.22
2023-01-23T05:45:51.900Z,95176.19
2023-01-23T05:47:55.841Z,95171.69
2023-01-23T05:49:57.936Z,95180.06
2023-01-23T05:51:59.658Z,95178.72
2023-01-23T05:54:02.784Z,95168.53
2023-01-23T05:56:08.440Z,95175.81
2023-01-23T05:58:10.048Z,95173.38
2023-01-23T06:00:13.496Z,95179.00
2023-01-23T06:02:15.184Z,95181.63
2023-01-23T06:04:16.821Z,95177.91
2023-01-23T06:06:18.483Z,95184.22
2023-01-23T06:08:20.181Z,95192.75
2023-01-23T06:10:22.219Z,95197.97
2023-01-23T06:12:23.919Z,95201.16
2023-01-23T06:14:25.499Z,95207.59
2023-01-23T06:16:27.591Z,95205.78
2023-01-23T06:18:29.211Z,95211.03
2023-01-23T06:20:30.878Z,95204.00
2023-01-23T06:22:32.733Z,95200.88
2023-01-23T06:24:34.473Z,95205.28
2023-01-23T06:26:36.080Z,95209.00
2023-01-23T06:28:37.889Z,95208.00
2023-01-23T06:30:39.536Z,95205.00
2023-01-23T06:32:41.328Z,95209.66
2023-01-23T06:34:43.169Z,95210.22
2023-01-23T06:36:46.243Z,95200.19
2023-01-23T06:38:47.885Z,95206.63
2023-01-23T06:40:49.469Z,95197.28
2023-01-23T06:42:54.828Z,95202.22
2023-01-23T06:44:56.480Z,95207.31
2023-01-23T06:46:58.166Z,95197.81
2023-01-23T06:49:00.010Z,95211.06
2023-01-23T06:51:02.308Z,95219.72
2023-01-23T06:53:05.432Z,95209.09
2023-01-23T06:55:07.304Z,95212.69
2023-01-23T06:57:09.112Z,95222.03
2023-01-23T06:59:10.929Z,95230.56
2023-01-23T07:01:16.021Z,95221.31
2023-01-23T07:03:17.784Z,95230.50
2023-01-23T07:05:20.271Z,95242.72
2023-01-23T07:07:21.897Z,95248.06
2023-01-23T07:09:23.515Z,95254.00
2023-01-23T07:11:25.574Z,95249.41
2023-01-23T07:13:27.339Z,95256.69
2023-01-23T07:15:29.015Z,95254.03
2023-01-23T07:17:30.641Z,95254.16
2023-01-23T07:19:32.576Z,95253.81
2023-01-23T07:21:34.461Z,95251.88
2023-01-23T07:23:36.263Z,95256.41
2023-01-23T07:25:38.108Z,95252.97
2023-01-23T07:27:39.948Z,95256.88
2023-01-23T07:29:42.878Z,95272.53
2023-01-23T07:31:44.700Z,95260.69
2023-01-23T07:33:46.355Z,95273.25
2023-01-23T07:35:48.089Z,95278.97
2023-01-23T07:37:49.939Z,95276.75
2023-01-23T07:39:51.648Z,95283.47
2023-01-23T07:41:53.238Z,95280.28
2023-01-23T07:43:55.110Z,95279.25
2023-01-23T07:46:00.459Z,95282.91
2023-01-23T07:48:02.053Z,95277.00
2023-01-23T07:50:04.029Z,95278.16
2023-01-23T07:52:05.674Z,95271.56
2023-01-23T07:54:07.588Z,95281.09
2023-01-23T07:56:09.415Z,95285.91
2023-01-23T07:58:11.152Z,95287.00
2023-01-23T08:00:12.931Z,95287.41
2023-01-23T08:02:14.735Z,95294.16
2023-01-23T08:04:16.473Z,95293.63
2023-01-23T08:06:18.059Z,95290.09
2023-01-23T08:08:19.663Z,95289.69
2023-01-23T08:10:21.634Z,95290.91
2023-01-23T08:12:23.625Z,95293.53
2023-01-23T08:14:25.285Z,95290.41
2023-01-23T08:16:27.072Z,95302.88
2023-01-23T08:18:30.633Z,95291.00
2023-01-23T08:20:32.196Z,95296.28
2023-01-23T08:22:34.024Z,95305.31
2023-01-23T08:24:35.898Z,95314.41
2023-01-23T08:26:37.717Z,95322.69
2023-01-23T08:28:39.673Z,95320.94
2023-01-23T08:30:41.504Z,95316.94
2023-01-23T08:32:43.177Z,95316.00
2023-01-23T08:34:44.760Z,95331.91
2023-01-23T08:36:46.334Z,95328.84
2023-01-23T08:38:48.306Z,95325.66
2023-01-23T08:40:51.706Z,95324.34
2023-01-23T08:42:54.066Z,95326.19
2023-01-23T08:44:56.792Z,95328.44
2023-01-23T08:46:58.461Z,95319.47
2023-01-23T08:49:00.252Z,95324.47
2023-01-23T08:51:07.854Z,95325.66
2023-01-23T08:53:09.470Z,95327.31
2023-01-23T08:55:12.775Z,95320.38
2023-01-23T08:57:14.463Z,95328.19
2023-01-23T08:59:16.081Z,95331.88
2023-01-23T09:01:23.415Z,95334.16
2023-01-23T09:03:25.679Z,95337.34
2023-01-23T09:05:28.987Z,95326.16
2023-01-23T09:07:30.873Z,95334.69
2023-01-23T09:09:32.548Z,95333.53
2023-01-23T09:11:34.240Z,95332.19
2023-01-23T09:13:36.009Z,95335.84
2023-01-23T09:15:39.397Z,95334.84
2023-01-23T09:17:41.021Z,95320.28
2023-01-23T09:19:42.667Z,95331.53
2023-01-23T09:21:44.697Z,95340.16
2023-01-23T09:23:46.314Z,95333.16
2023-01-23T09:25:48.042Z,95342.66
2023-01-23T09:27:49.704Z,95344.31
2023-01-23T09:29:51.389Z,95341.84
2023-01-23T09:31:53.039Z,95342.66
2023-01-23T09:33:54.721Z,95331.53
2023-01-23T09:35:57.748Z,95324.28
2023-01-23T09:38:02.313Z,95331.56
2023-01-23T09:40:04.277Z,95332.81
2023-01-23T09:42:08.519Z,95322.88
2023-01-23T09:44:13.310Z,95324.63
2023-01-23T09:46:32.553Z,95324.53
2023-01-23T09:48:44.332Z,95319.94
2023-01-23T09:50:55.412Z,95326.88
2023-01-23T09:53:04.878Z,95318.53
2023-01-23T09:55:19.319Z,95330.38
2023-01-23T09:57:24.166Z,95332.97
2023-01-23T09:59:53.761Z,95344.69
2023-01-23T10:01:59.773Z,95347.78
2023-01-23T10:04:02.389Z,95333.94
2023-01-23T10:06:26.866Z,95327.50
2023-01-23T10:08:51.305Z,95329.91
2023-01-23T10:10:54.564Z,95328.72
2023-01-23T10:13:20.894Z,95327.31
2023-01-23T10:15:45.767Z,95320.19
2023-01-23T10:18:20.261Z,95320.50
2023-01-23T10:20:34.056Z,95325.16
2023-01-23T10:22:41.769Z,95327.41
2023-01-23T10:24:55.663Z,95321.78
2023-01-23T10:27:03.619Z,95321.22
2023-01-23T10:29:38.602Z,95327.06
2023-01-23T10:31:43.019Z,95319.38
2023-01-23T10:33:49.762Z,95338.44
2023-01-23T10:35:53.712Z,95333.16
2023-01-23T10:38:12.560Z,95329.84
2023-01-23T10:40:17.203Z,95336.84
2023-01-23T10:42:22.426Z,95332.16
2023-01-23T10:44:24.318Z,95327.31
2023-01-23T10:46:35.946Z,95328.84
2023-01-23T10:48:49.099Z,95315.94
2023-01-23T10:50:51.650Z,95323.22
2023-01-23T10:53:06.063Z,95321.59
2023-01-23T10:55:20.193Z,95321.22
2023-01-23T10:57:23.710Z,95311.34
2023-01-23T11:00:04.535Z,95322.28
2023-01-23T11:02:15.932Z,95317.47
2023-01-23T11:04:23.730Z,95332.47
2023-01-23T11:06:26.223Z,95318.09
2023-01-23T11:08:36.802Z,95328.47
2023-01-23T11:10:38.508Z,95319.69
2023-01-23T11:12:54.355Z,95329.63
2023-01-23T11:15:31.296Z,95323.44
2023-01-23T11:17:33.399Z,95320.50
2023-01-23T11:19:37.128Z,95331.97
2023-01-23T11:21:51.715Z,95325.59
2023-01-23T11:24:20.450Z,95329.69
2023-01-23T11:26:34.545Z,95334.38
2023-01-23T11:28:48.861Z,95326.19
2023-01-23T11:30:51.348Z,95321.53
2023-01-23T11:33:02.308Z,95334.06
2023-01-23T11:35:13.495Z,95323.19
2023-01-23T11:37:25.816Z,95331.53
2023-01-23T11:39:37.998Z,95330.31
2023-01-23T11:41:39.902Z,95331.13
2023-01-23T11:43:41.999Z,95329.63
2023-01-23T11:46:30.953Z,95335.66
2023-01-23T11:48:54.999Z,95331.97
2023-01-23T11:51:19.004Z,95335.91
2023-01-23T11:53:36.698Z,95325.84
2023-01-23T11:56:13.457Z,95340.81
2023-01-23T11:58:30.814Z,95331.81
2023-01-23T12:00:44.230Z,95335.84
2023-01-23T12:02:58.687Z,95334.31
2023-01-23T12:05:16.406Z,95327.91
2023-01-23T12:07:21.835Z,95326.09
2023-01-23T12:09:29.628Z,95314.34
2023-01-23T12:11:41.232Z,95314.34
2023-01-23T12:14:04.937Z,95306.72
2023-01-23T12:16:28.099Z,95316.44
2023-01-23T12:18:44.824Z,95311.84
2023-01-23T12:20:52.898Z,95317.16
2023-01-23T12:23:07.549Z,95322.28
2023-01-23T12:25:33.887Z,95310.91
2023-01-23T12:27:43.858Z,95317.66
2023-01-23T12:30:22.821Z,95314.34
2023-01-23T12:32:55.343Z,95307.72
2023-01-23T12:35:21.575Z,95307.31
2023-01-23T12:37:54.781Z,95300.00
2023-01-23T12:39:59.457Z,95303.69
2023-01-23T12:42:07.129Z,95309.63
2023-01-23T12:44:16.805Z,95308.69
2023-01-23T12:46:48.006Z,95305.41
2023-01-23T12:48:56.070Z,95309.44
2023-01-23T12:51:15.552Z,95308.47
2023-01-23T12:53:20.293Z,95312.63
2023-01-23T12:55:25.090Z,95317.59
2023-01-23T12:57:59.266Z,95311.97
2023-01-23T13:00:07.931Z,95311.97
2023-01-23T13:02:15.616Z,95319.81
2023-01-23T13:04:35.201Z,95321.38
2023-01-23T13:06:48.915Z,95314.78
2023-01-23T13:09:35.527Z,95319.59
2023-01-23T13:12:04.614Z,95322.84
2023-01-23T13:15:06.491Z,95328.31
2023-01-23T13:17:38.223Z,95327.75
2023-01-23T13:20:00.883Z,95325.63
2023-01-23T13:22:22.321Z,95326.56
2023-01-23T13:24:52.679Z,95323.03
2023-01-23T13:26:54.523Z,95338.56
2023-01-23T13:28:58.685Z,95332.97
2023-01-23T13:31:02.707Z,95324.06
2023-01-23T13:33:06.999Z,95333.41
2023-01-23T13:35:43.425Z,95327.28
2023-01-23T13:37:51.493Z,95334.16
2023-01-23T13:40:17.221Z,95323.47
2023-01-23T13:42:39.105Z,95325.63
2023-01-23T13:45:18.653Z,95338.56
2023-01-23T14:38:37.723Z,95363.41
2023-01-23T14:40:50.210Z,95362.72
2023-01-23T14:42:59.504Z,95360.72
2023-01-23T14:45:02.316Z,95361.59
2023-01-23T14:47:05.088Z,95365.66
2023-01-23T14:49:08.114Z,95366.38
2023-01-23T14:51:25.484Z,95373.25
2023-01-23T14:53:27.104Z,95364.63
2023-01-23T14:55:30.416Z,95366.16
2023-01-23T14:57:32.288Z,95375.94
2023-01-23T14:59:38.672Z,95379.41
2023-01-23T15:01:40.356Z,95371.25
2023-01-23T15:03:45.007Z,95368.75
2023-01-23T15:05:57.247Z,95373.16
2023-01-23T15:08:03.224Z,95380.25
2023-01-23T15:10:05.237Z,95385.97
2023-01-23T15:12:08.881Z,95394.88
2023-01-23T15:14:29.378Z,95397.81
2023-01-23T15:16:38.213Z,95398.78
2023-01-23T15:18:40.183Z,95399.13
2023-01-23T15:20:41.943Z,95404.44
2023-01-23T15:22:43.578Z,95400.41
2023-01-23T15:24:45.347Z,95403.72
2023-01-23T15:26:59.015Z,95407.31
2023-01-23T15:29:09.675Z,95405.63
2023-01-23T15:31:27.541Z,95416.28
2023-01-23T15:33:31.052Z,95414.28
2023-01-23T15:35:37.319Z,95421.72
2023-01-23T15:37:38.977Z,95419.13
2023-01-23T15:39:50.645Z,95407.88
2023-01-23T15:41:56.225Z,95412.72
2023-01-23T15:43:57.768Z,95411.41
2023-01-23T15:46:00.621Z,95419.34
2023-01-23T15:48:02.326Z,95426.44
2023-01-23T15:50:04.105Z,95428.59
2023-01-23T15:52:24.214Z,95433.81
2023-01-23T15:54:36.109Z,95435.13
2023-01-23T15:56:38.775Z,95443.06
2023-01-23T15:58:40.378Z,95441.97
2023-01-23T16:00:42.126Z,95437.63
2023-01-23T16:02:55.013Z,95441.75
2023-01-23T16:04:57.907Z,95445.56
2023-01-23T16:07:07.125Z,95445.28
2023-01-23T16:09:15.802Z,95447.31
2023-01-23T16:11:18.561Z,95449.47
2023-01-23T16:13:20.186Z,95455.38
2023-01-23T16:15:24.958Z,95453.97
2023-01-23T16:17:26.676Z,95450.19
2023-01-23T16:19:28.262Z,95446.16
2023-01-23T16:21:30.521Z,95455.44
2023-01-23T16:23:42.533Z,95449.63
2023-01-23T16:25:49.390Z,95452.94
2023-01-23T16:27:51.288Z,95446.66
2023-01-23T16:29:54.089Z,95451.38
2023-01-23T16:31:56.619Z,95457.19
2023-01-23T16:33:58.460Z,95451.72
2023-01-23T16:36:00.218Z,95450.34
2023-01-23T16:38:02.051Z,95452.84
2023-01-23T16:40:04.038Z,95456.63
2023-01-23T16:42:05.741Z,95456.84
2023-01-23T16:44:18.732Z,95462.78
2023-01-23T16:46:20.479Z,95462.16
2023-01-23T16:48:27.120Z,95456.75
2023-01-23T16:50:37.819Z,95454.75
2023-01-23T16:52:40.380Z,95462.41
2023-01-23T16:54:42.994Z,95465.38
2023-01-23T16:56:45.007Z,95464.44
2023-01-23T16:58:46.751Z,95463.84
2023-01-23T17:00:49.924Z,95460.06
2023-01-23T17:02:53.944Z,95469.63
2023-01-23T17:04:55.476Z,95462.53
2023-01-23T17:06:57.139Z,95467.97
2023-01-23T17:08:59.072Z,95468.59
2023-01-23T17:11:02.860Z,95449.53
2023-01-23T17:13:04.530Z,95469.41
2023-01-23T17:15:07.078Z,95465.00
2023-01-23T17:17:14.318Z,95463.00
2023-01-23T17:19:41.673Z,95473.06
2023-01-23T17:21:44.366Z,95474.38
2023-01-23T17:23:46.714Z,95481.13
2023-01-23T17:25:59.934Z,95475.31
2023-01-23T17:28:12.892Z,95480.28
2023-01-23T17:30:21.324Z,95469.75
2023-01-23T17:32:39.137Z,95483.88
2023-01-23T17:34:49.416Z,95473.66
2023-01-23T17:36:53.032Z,95469.06
2023-01-23T17:38:55.871Z,95473.31
2023-01-23T17:40:57.523Z,95475.56
2023-01-23T17:42:59.138Z,95483.97
2023-01-23T17:45:00.764Z,95486.78
2023-01-23T17:47:02.421Z,95490.22
2023-01-23T17:49:04.589Z,95492.94
2023-01-23T17:51:14.656Z,95485.72
2023-01-23T17:53:17.285Z,95488.81
2023-01-23T17:55:25.498Z,95481.72
2023-01-23T17:57:27.229Z,95481.00
2023-01-23T17:59:28.886Z,95483.97
2023-01-23T18:01:30.696Z,95489.03
2023-01-23T18:03:32.534Z,95488.00
2023-01-23T18:05:34.384Z,95487.16
2023-01-23T18:07:48.441Z,95489.44
2023-01-23T18:09:56.325Z,95487.66
2023-01-23T18:11:59.143Z,95491.19
2023-01-23T18:14:15.855Z,95486.22
2023-01-23T18:16:24.772Z,95496.84
2023-01-23T18:18:26.363Z,95498.72
2023-01-23T18:20:28.701Z,95502.50
2023-01-23T18:22:31.115Z,95495.31
2023-01-23T18:24:33.464Z,95492.91
2023-01-23T18:26:45.459Z,95495.88
2023-01-23T18:29:13.336Z,95498.00
2023-01-23T18:31:40.928Z,95492.28
2023-01-23T18:33:54.549Z,95486.88
2023-01-23T18:36:02.712Z,95491.91
2023-01-23T18:38:17.333Z,95491.69
2023-01-23T18:40:45.264Z,95485.88
2023-01-23T18:43:08.637Z,95498.19
2023-01-23T18:45:23.663Z,95500.31
2023-01-23T18:47:28.695Z,95500.44
2023-01-23T18:49:32.960Z,95501.03
2023-01-23T18:52:10.248Z,95496.00
2023-01-23T18:54:38.924Z,95499.59
2023-01-23T18:56:52.387Z,95486.78
2023-01-23T18:59:10.272Z,95492.94
2023-01-23T19:01:24.073Z,95496.28
2023-01-23T19:03:36.690Z,95488.66
2023-01-23T19:05:38.394Z,95499.16
2023-01-23T19:07:40.789Z,95500.44
2023-01-23T19:09:46.532Z,95499.72
2023-01-23T19:12:25.330Z,95493.78
2023-01-23T19:14:30.543Z,95495.81
2023-01-23T19:16:33.297Z,95501.47
2023-01-23T19:18:40.084Z,95498.50
2023-01-23T19:20:46.788Z,95495.63
2023-01-23T19:23:19.346Z,95499.31
2023-01-23T19:25:22.137Z,95501.56
2023-01-23T19:27:24.237Z,95497.44
2023-01-23T19:29:26.138Z,95507.97
2023-01-23T19:31:30.117Z,95509.31
2023-01-23T19:33:31.898Z,95513.59
2023-01-23T19:35:33.629Z,95512.16
2023-01-23T19:37:39.807Z,95522.22
2023-01-23T19:39:41.416Z,95521.88
2023-01-23T19:41:45.241Z,95525.41
2023-01-23T19:43:47.600Z,95521.63
2023-01-23T19:45:49.181Z,95520.81
2023-01-23T19:47:53.419Z,95521.31
2023-01-23T19:49:55.044Z,95522.97
2023-01-23T19:51:56.708Z,95526.88
2023-01-23T19:53:58.761Z,95530.31
2023-01-23T19:56:01.457Z,95521.91
2023-01-23T19:58:03.160Z,95529.00
2023-01-23T20:00:05.789Z,95532.44
2023-01-23T20:02:19.561Z,95534.00
2023-01-23T20:04:23.183Z,95538.03
2023-01-23T20:06:24.833Z,95535.91
2023-01-23T20:08:26.492Z,95532.13
2023-01-23T20:10:28.331Z,95535.75
2023-01-23T20:12:30.035Z,95530.59
2023-01-23T20:14:31.833Z,95538.41
2023-01-23T20:16:33.450Z,95531.31
2023-01-23T20:18:35.104Z,95530.41
2023-01-23T20:20:36.830Z,95534.53
2023-01-23T20:22:39.607Z,95538.94
2023-01-23T20:24:41.255Z,95542.34
2023-01-23T20:26:42.871Z,95546.38
2023-01-23T20:28:47.895Z,95546.94
2023-01-23T20:30:49.567Z,95542.06
2023-01-23T20:32:51.273Z,95545.59
2023-01-23T20:34:55.331Z,95548.59
2023-01-23T20:36:56.936Z,95551.41
2023-01-23T20:38:58.773Z,95548.22
2023-01-23T20:41:04.743Z,95552.22
2023-01-23T20:43:06.384Z,95561.53
2023-01-23T20:45:08.877Z,95567.00
2023-01-23T20:47:10.575Z,95570.19
2023-01-23T20:49:13.585Z,95573.38
2023-01-23T20:51:16.625Z,95568.16
2023-01-23T20:53:30.202Z,95563.19
2023-01-23T20:55:31.740Z,95558.09
2023-01-23T20:57:51.791Z,95573.00
2023-01-23T20:59:53.392Z,95576.31
2023-01-23T21:02:13.382Z,95572.16
2023-01-23T21:04:14.994Z,95566.16
2023-01-23T21:06:17.854Z,95572.16
2023-01-23T21:08:19.469Z,95579.69
2023-01-23T21:10:21.062Z,95571.16
2023-01-23T21:12:22.694Z,95574.06
2023-01-23T21:14:24.552Z,95569.84
2023-01-23T21:16:26.347Z,95577.06
2023-01-23T21:18:28.549Z,95582.28
2023-01-23T21:20:30.155Z,95580.63
2023-01-23T21:22:31.798Z,95578.31
2023-01-23T21:24:34.571Z,95583.06
2023-01-23T21:26:37.149Z,95584.50
2023-01-23T21:28:39.006Z,95584.69
2023-01-23T21:30:40.952Z,95591.94
2023-01-23T21:32:42.722Z,95590.66
2023-01-23T21:34:44.344Z,95588.22
2023-01-23T21:36:45.950Z,95584.56
2023-01-23T21:38:51.177Z,95580.78
2023-01-23T21:40:54.005Z,95573.81
2023-01-23T21:42:55.790Z,95568.72
2023-01-23T21:44:58.093Z,95578.41
2023-01-23T21:46:59.680Z,95579.81
2023-01-23T21:49:01.532Z,95583.19
2023-01-23T21:51:05.036Z,95577.66
2023-01-23T21:53:07.500Z,95572.66
2023-01-23T21:55:09.437Z,95572.66
2023-01-23T21:57:10.987Z,95566.97
2023-01-23T21:59:12.659Z,95555.34
2023-01-23T22:01:32.961Z,95566.53
2023-01-23T22:03:35.836Z,95559.22
2023-01-23T22:05:37.586Z,95564.91
2023-01-23T22:07:39.245Z,95558.69
2023-01-23T22:09:40.946Z,95558.53
2023-01-23T22:11:42.859Z,95558.88
2023-01-23T22:13:44.605Z,95558.59
2023-01-23T22:15:46.322Z,95558.72
2023-01-23T22:17:48.033Z,95553.19
2023-01-23T22:19:50.804Z,95556.63
2023-01-23T22:21:54.207Z,95556.19
2023-01-23T22:23:55.945Z,95555.00
2023-01-23T22:25:59.801Z,95551.34
2023-01-23T22:28:01.278Z,95557.72
2023-01-23T22:30:03.105Z,95556.19
2023-01-23T22:32:05.008Z,95558.44
2023-01-23T22:34:07.153Z,95555.00
2023-01-23T22:36:11.578Z,95548.38
2023-01-23T22:38:14.533Z,95553.69
2023-01-23T22:40:16.459Z,95551.31
2023-01-23T22:42:19.192Z,95548.38
2023-01-23T22:44:20.900Z,95549.25
2023-01-23T22:46:23.618Z,95545.59
2023-01-23T22:48:25.200Z,95548.44
2023-01-23T22:50:27.501Z,95553.38
2023-01-23T22:52:29.203Z,95543.84
2023-01-23T22:54:30.908Z,95553.53
2023-01-23T22:56:32.625Z,95552.91
2023-01-23T22:58:34.796Z,95554.25
2023-01-23T23:00:36.357Z,95557.72
2023-01-23T23:02:39.149Z,95553.34
2023-01-23T23:04:40.791Z,95553.34
2023-01-23T23:06:42.380Z,95547.31
2023-01-23T23:08:47.237Z,95549.94
2023-01-23T23:11:09.018Z,95555.13
2023-01-23T23:13:10.604Z,95551.09
2023-01-23T23:15:12.205Z,95543.63
2023-01-23T23:17:13.846Z,95549.44
2023-01-23T23:19:15.605Z,95554.19
2023-01-23T23:21:20.578Z,95559.78
2023-01-23T23:23:22.237Z,95562.50
2023-01-23T23:25:23.820Z,95568.28
2023-01-23T23:27:25.409Z,95566.34
2023-01-23T23:29:27.085Z,95565.69
2023-01-23T23:31:29.361Z,95574.53
2023-01-23T23:33:31.232Z,95568.94
2023-01-23T23:35:32.863Z,95563.81
2023-01-23T23:37:34.783Z,95567.88
2023-01-23T23:39:36.410Z,95566.88
2023-01-23T23:41:38.131Z,95563.53
2023-01-23T23:43:39.791Z,95571.72
2023-01-23T23:45:51.856Z,95567.13
2023-01-23T23:47:55.066Z,95573.03
2023-01-23T23:49:56.737Z,95565.97
2023-01-23T23:51:58.347Z,95561.00
2023-01-23T23:54:00.027Z,95563.78
2023-01-23T23:56:02.080Z,95563.94
2023-01-23T23:58:03.715Z,95562.16
